Time;durP1;ratioP1;P1;durP2;ratioP2;P2;SDS_P1;SDS_P2;PMS_P1;PMS_P2;Temp;Humidity;BMP_temperature;BMP_pressure;BME280_temperature;BME280_humidity;BME280_pressure;Samples;Min_cycle;Max_cycle;Signal;HPM_P1;HPM_P2
2022/03/06 00:01:13;;;;;;;41.03;29.60;;;;;;;5.16;99.12;99486.06;5050331;28;20193;-58
2022/03/06 00:03:41;;;;;;;45.17;27.40;;;;;;;5.27;100.00;99489.00;5049969;28;20292;-59
2022/03/06 00:06:08;;;;;;;44.33;30.37;;;;;;;5.28;99.46;99478.84;5049956;28;20203;-58
2022/03/06 00:08:35;;;;;;;42.57;28.23;;;;;;;5.22;99.79;99481.16;5049980;28;20208;-59
2022/03/06 00:11:03;;;;;;;39.80;28.00;;;;;;;5.24;99.89;99479.56;5049979;28;20187;-59
2022/03/06 00:13:29;;;;;;;37.30;27.93;;;;;;;5.25;99.81;99465.13;5050373;28;20200;-58
2022/03/06 00:15:56;;;;;;;42.93;29.10;;;;;;;5.26;99.26;99475.38;5050241;28;20194;-59
2022/03/06 00:18:23;;;;;;;44.33;30.07;;;;;;;5.22;99.74;99475.19;5050019;28;20192;-59
2022/03/06 00:20:52;;;;;;;44.03;31.90;;;;;;;5.24;99.42;99473.59;5049773;28;20439;-59
2022/03/06 00:23:19;;;;;;;37.97;27.57;;;;;;;5.20;99.51;99466.63;5050137;28;20219;-59
2022/03/06 00:25:46;;;;;;;36.13;27.03;;;;;;;5.14;99.14;99471.50;5050188;28;20320;-59
2022/03/06 00:28:13;;;;;;;42.10;28.67;;;;;;;5.24;99.31;99479.56;5050506;28;20231;-59
2022/03/06 00:30:41;;;;;;;38.93;28.90;;;;;;;5.21;99.43;99473.47;5050162;28;20238;-59
2022/03/06 00:33:09;;;;;;;42.83;29.87;;;;;;;5.27;99.50;99478.81;5048404;28;20195;-59
2022/03/06 00:35:35;;;;;;;42.20;29.37;;;;;;;5.22;99.64;99470.97;5031657;28;20288;-59
2022/03/06 00:38:04;;;;;;;41.63;28.77;;;;;;;5.24;99.33;99471.91;5029463;28;20202;-59
2022/03/06 00:40:31;;;;;;;40.83;28.20;;;;;;;5.23;99.31;99465.06;5047502;28;20200;-60
2022/03/06 00:42:58;;;;;;;40.30;29.23;;;;;;;5.21;99.51;99468.38;5052855;28;20227;-60
2022/03/06 00:45:25;;;;;;;40.63;29.20;;;;;;;5.12;99.47;99458.72;5053076;28;20204;-60
2022/03/06 00:47:52;;;;;;;44.10;30.83;;;;;;;5.15;99.30;99463.06;5053001;28;20501;-60
2022/03/06 00:50:19;;;;;;;41.37;28.83;;;;;;;5.15;99.14;99468.16;5052921;28;20626;-60
2022/03/06 00:52:46;;;;;;;39.80;28.53;;;;;;;5.14;99.36;99462.19;5053300;28;20666;-60
2022/03/06 00:55:14;;;;;;;39.63;27.97;;;;;;;5.17;98.92;99459.75;5053764;28;20289;-60
2022/03/06 00:57:41;;;;;;;37.80;27.50;;;;;;;5.15;99.54;99458.84;5053558;28;20197;-61
2022/03/06 01:00:09;;;;;;;40.60;27.87;;;;;;;5.16;99.17;99458.03;5053451;28;20582;-61
2022/03/06 01:02:36;;;;;;;37.37;26.73;;;;;;;5.13;98.68;99454.50;5053467;28;20223;-61
2022/03/06 01:05:04;;;;;;;38.20;27.53;;;;;;;4.94;99.27;99430.06;5053276;28;20289;-60
2022/03/06 01:07:31;;;;;;;37.97;27.33;;;;;;;5.02;99.06;99446.47;5053391;28;20730;-60
2022/03/06 01:09:58;;;;;;;44.40;27.83;;;;;;;4.99;98.50;99453.13;5053349;28;20204;-60
2022/03/06 01:12:26;;;;;;;40.10;26.47;;;;;;;5.00;98.78;99450.63;5053436;28;20558;-61
2022/03/06 01:14:53;;;;;;;42.58;32.88;;;;;;;5.06;98.77;99453.41;5053081;28;20466;-60
2022/03/06 01:17:20;;;;;;;37.53;27.57;;;;;;;5.12;98.19;99453.63;5053206;28;20194;-60
2022/03/06 01:19:47;;;;;;;35.67;26.20;;;;;;;5.14;98.37;99463.84;5053019;28;20193;-60
2022/03/06 01:22:14;;;;;;;36.63;26.80;;;;;;;5.11;97.61;99449.34;5053146;28;20220;-60
2022/03/06 01:24:42;;;;;;;36.87;27.10;;;;;;;5.03;98.25;99448.19;5053081;28;20566;-60
2022/03/06 01:27:09;;;;;;;33.23;26.17;;;;;;;4.99;98.47;99448.03;5053011;28;20656;-60
2022/03/06 01:29:38;;;;;;;35.27;25.77;;;;;;;4.94;98.48;99450.41;5052989;28;20311;-60
2022/03/06 01:32:05;;;;;;;38.10;25.83;;;;;;;5.04;98.58;99454.16;5053077;28;20193;-60
2022/03/06 01:34:32;;;;;;;35.60;25.40;;;;;;;4.92;98.14;99444.38;5052836;28;20283;-61
2022/03/06 01:36:59;;;;;;;38.53;27.30;;;;;;;4.91;97.73;99437.56;5050017;28;20352;-62
2022/03/06 01:39:26;;;;;;;40.73;27.47;;;;;;;4.96;98.19;99450.47;5052727;28;20205;-62
2022/03/06 01:41:53;;;;;;;38.23;27.03;;;;;;;4.90;97.85;99440.91;5053034;28;20193;-61
2022/03/06 01:44:20;;;;;;;36.07;26.80;;;;;;;4.83;98.02;99453.34;5052664;28;20188;-60
2022/03/06 01:46:48;;;;;;;35.53;25.80;;;;;;;4.97;97.96;99435.22;5050911;28;20201;-61
2022/03/06 01:49:16;;;;;;;37.43;27.07;;;;;;;4.67;97.66;99406.97;5044896;28;20284;-61
2022/03/06 01:51:44;;;;;;;33.87;25.07;;;;;;;4.90;98.26;99451.09;5032973;28;20228;-60
2022/03/06 01:54:11;;;;;;;36.63;27.23;;;;;;;4.90;97.29;99440.03;5032257;28;20202;-60
2022/03/06 01:56:38;;;;;;;36.83;26.63;;;;;;;4.84;97.54;99443.22;5032559;28;20671;-62
2022/03/06 01:59:05;;;;;;;37.27;27.00;;;;;;;4.76;98.27;99439.53;5046722;28;20197;-61
2022/03/06 02:01:32;;;;;;;38.80;30.13;;;;;;;4.76;97.85;99442.94;5045202;28;20451;-60
2022/03/06 02:04:01;;;;;;;37.00;26.70;;;;;;;4.76;97.59;99442.94;5032512;28;20276;-61
2022/03/06 02:06:28;;;;;;;36.17;26.13;;;;;;;4.80;97.86;99438.84;5032385;28;20336;-62
2022/03/06 02:08:55;;;;;;;37.10;29.13;;;;;;;4.70;98.03;99435.06;5031788;28;20819;-61
2022/03/06 02:11:23;;;;;;;36.80;26.33;;;;;;;4.66;98.27;99445.94;5032223;28;20292;-61
2022/03/06 02:13:50;;;;;;;37.17;26.33;;;;;;;4.55;97.29;99448.88;5032312;28;20193;-61
2022/03/06 02:16:17;;;;;;;33.27;24.17;;;;;;;4.51;97.56;99450.44;5032201;28;20190;-60
2022/03/06 02:18:44;;;;;;;34.73;23.13;;;;;;;4.42;97.67;99451.75;5031547;28;20292;-60
2022/03/06 02:21:15;;;;;;;33.20;25.07;;;;;;;4.41;98.94;99450.00;5032258;28;20204;-60
2022/03/06 02:23:42;;;;;;;33.33;22.63;;;;;;;4.40;97.94;99450.81;5031919;28;20227;-61
2022/03/06 02:26:09;;;;;;;34.10;24.03;;;;;;;4.34;97.77;99451.44;5031969;28;20197;-61
2022/03/06 02:28:36;;;;;;;38.65;28.02;;;;;;;4.31;98.34;99453.00;5031491;28;20448;-60
2022/03/06 02:31:03;;;;;;;32.10;24.87;;;;;;;4.34;98.23;99450.59;5031765;28;20201;-61
2022/03/06 02:33:30;;;;;;;34.73;24.90;;;;;;;4.31;98.29;99448.81;5043282;28;20287;-62
2022/03/06 02:35:58;;;;;;;33.83;24.07;;;;;;;4.32;98.23;99447.09;5052018;28;20589;-60
2022/03/06 02:38:26;;;;;;;28.83;21.20;;;;;;;4.08;98.40;99452.06;5067289;28;20286;-62
2022/03/06 02:40:54;;;;;;;32.63;23.37;;;;;;;4.08;98.40;99452.94;5071804;28;20202;-62
2022/03/06 02:43:21;;;;;;;33.10;23.87;;;;;;;4.06;98.51;99454.56;5071784;28;20225;-61
2022/03/06 02:45:48;;;;;;;30.83;22.27;;;;;;;3.88;98.95;99433.47;5055416;28;20200;-61
2022/03/06 02:48:17;;;;;;;30.07;21.13;;;;;;;4.00;98.66;99448.34;5051422;28;20188;-62
2022/03/06 02:50:44;;;;;;;33.37;23.13;;;;;;;3.88;98.74;99456.34;5051265;28;20200;-62
2022/03/06 02:53:12;;;;;;;28.87;21.10;;;;;;;3.94;98.68;99453.19;5051448;28;20574;-62
2022/03/06 02:55:42;;;;;;;31.00;23.20;;;;;;;3.99;98.59;99457.66;5051386;28;20236;-62
2022/03/06 02:58:09;;;;;;;33.03;22.60;;;;;;;3.88;98.73;99458.88;5051438;28;20325;-62
2022/03/06 03:00:37;;;;;;;31.93;21.80;;;;;;;3.88;99.10;99461.41;5051391;28;20228;-62
2022/03/06 03:03:04;;;;;;;35.38;25.85;;;;;;;3.93;98.64;99459.06;5067715;28;20461;-61
2022/03/06 03:05:31;;;;;;;31.20;22.37;;;;;;;3.93;98.65;99462.47;5070319;28;20203;-62
2022/03/06 03:07:58;;;;;;;35.07;22.20;;;;;;;3.78;98.42;99454.22;5071093;28;20196;-60
2022/03/06 03:10:27;;;;;;;32.60;21.57;;;;;;;3.80;98.81;99461.91;5070832;28;20192;-61
2022/03/06 03:12:56;;;;;;;32.07;21.43;;;;;;;3.77;98.80;99460.09;5071016;28;20684;-61
2022/03/06 03:15:23;;;;;;;34.30;22.67;;;;;;;3.60;98.36;99425.47;5071075;28;20607;-61
2022/03/06 03:17:50;;;;;;;28.73;20.33;;;;;;;3.77;98.95;99462.63;5053407;28;20200;-61
2022/03/06 03:20:17;;;;;;;30.10;20.93;;;;;;;3.84;98.54;99469.72;5051024;28;20216;-62
2022/03/06 03:22:45;;;;;;;31.88;23.55;;;;;;;3.81;98.42;99461.97;5050367;28;20924;-61
2022/03/06 03:25:13;;;;;;;29.30;22.10;;;;;;;3.74;98.31;99469.25;5050755;28;20311;-62
2022/03/06 03:27:40;;;;;;;32.00;21.43;;;;;;;3.67;98.29;99465.59;5044558;28;20192;-62
2022/03/06 03:30:10;;;;;;;31.70;24.58;;;;;;;3.68;98.77;99474.94;5031447;28;20555;-62
2022/03/06 03:32:38;;;;;;;30.27;21.50;;;;;;;3.75;98.90;99463.38;5039882;28;20207;-62
2022/03/06 03:35:05;;;;;;;28.77;19.83;;;;;;;3.75;98.56;99469.34;5050565;28;20279;-62
2022/03/06 03:37:32;;;;;;;31.73;21.23;;;;;;;3.60;98.32;99478.81;5046311;28;20570;-61
2022/03/06 03:40:00;;;;;;;28.53;20.53;;;;;;;3.62;98.57;99479.78;5046719;28;20219;-61
2022/03/06 03:42:26;;;;;;;26.77;18.97;;;;;;;3.67;98.88;99479.97;5050767;28;20199;-60
2022/03/06 03:44:53;;;;;;;27.90;21.10;;;;;;;3.71;98.78;99475.06;5050457;28;20220;-58
2022/03/06 03:47:22;;;;;;;28.00;20.13;;;;;;;3.65;98.43;99469.75;5050342;28;20286;-58
2022/03/06 03:49:49;;;;;;;25.97;19.43;;;;;;;3.70;98.28;99475.91;5050945;28;20196;-58
2022/03/06 03:52:15;;;;;;;29.90;20.37;;;;;;;3.64;98.32;99475.63;5050466;28;20204;-58
2022/03/06 03:54:42;;;;;;;27.93;20.37;;;;;;;3.53;98.46;99475.16;5050765;28;20618;-58
2022/03/06 03:57:09;;;;;;;27.53;20.03;;;;;;;3.46;98.73;99478.22;5050508;28;20283;-58
2022/03/06 03:59:36;;;;;;;35.63;21.30;;;;;;;3.45;98.75;99473.09;5050367;28;20282;-58
2022/03/06 04:02:03;;;;;;;30.33;19.27;;;;;;;3.46;98.80;99485.00;5050692;28;20220;-58
2022/03/06 04:04:32;;;;;;;31.37;22.53;;;;;;;3.40;99.24;99483.06;5050368;28;20223;-58
2022/03/06 04:06:59;;;;;;;28.20;20.23;;;;;;;3.43;99.06;99490.78;5050748;28;20303;-59
2022/03/06 04:09:26;;;;;;;30.13;20.90;;;;;;;3.41;98.72;99477.16;5050592;28;20191;-58
2022/03/06 04:11:53;;;;;;;29.63;20.27;;;;;;;3.43;99.10;99483.16;5050747;28;20574;-58
2022/03/06 04:14:20;;;;;;;31.10;20.50;;;;;;;3.32;99.34;99494.56;5050355;28;20192;-58
2022/03/06 04:16:47;;;;;;;34.90;24.85;;;;;;;3.44;99.61;99486.59;5051677;28;20443;-59
2022/03/06 04:19:14;;;;;;;33.53;22.90;;;;;;;3.14;99.14;99431.91;5054898;28;20211;-58
2022/03/06 04:21:42;;;;;;;30.53;21.20;;;;;;;3.48;99.12;99483.38;5054578;28;20196;-59
2022/03/06 04:24:09;;;;;;;36.20;26.13;;;;;;;3.50;99.27;99481.78;5053556;28;20447;-58
2022/03/06 04:26:36;;;;;;;35.70;23.13;;;;;;;3.48;99.46;99481.72;5054272;28;20290;-58
2022/03/06 04:29:04;;;;;;;31.83;22.37;;;;;;;3.49;99.16;99487.66;5054036;28;20234;-58
2022/03/06 04:31:31;;;;;;;34.67;22.00;;;;;;;3.51;98.48;99481.88;5053968;28;20224;-59
2022/03/06 04:33:58;;;;;;;33.67;22.17;;;;;;;3.53;99.01;99487.00;5054042;28;20350;-58
2022/03/06 04:36:25;;;;;;;32.70;21.37;;;;;;;3.49;98.55;99490.19;5054044;28;20212;-58
2022/03/06 04:38:54;;;;;;;32.03;21.63;;;;;;;3.41;98.83;99494.06;5054046;28;20188;-59
2022/03/06 04:41:21;;;;;;;29.73;20.53;;;;;;;3.42;99.22;99495.81;5053956;28;20581;-58
2022/03/06 04:43:48;;;;;;;36.67;26.15;;;;;;;3.42;98.73;99485.66;5052529;28;20841;-58
2022/03/06 04:46:15;;;;;;;31.20;22.23;;;;;;;3.40;99.18;99484.72;5053667;28;20294;-58
2022/03/06 04:48:42;;;;;;;30.47;22.83;;;;;;;3.41;99.55;99487.31;5053688;28;20200;-58
2022/03/06 04:51:09;;;;;;;38.80;29.15;;;;;;;3.52;98.90;99487.78;5052855;28;20442;-58
2022/03/06 04:53:36;;;;;;;34.47;22.83;;;;;;;3.49;98.42;99485.97;5053796;28;20196;-58
2022/03/06 04:56:05;;;;;;;34.60;24.70;;;;;;;3.43;98.34;99487.41;5053428;28;20287;-58
2022/03/06 04:58:32;;;;;;;33.10;23.47;;;;;;;3.42;98.53;99490.72;5053478;28;20378;-58
2022/03/06 05:00:59;;;;;;;33.10;22.57;;;;;;;3.44;98.74;99494.19;5053300;28;20197;-59
2022/03/06 05:03:26;;;;;;;35.00;21.90;;;;;;;3.38;98.43;99482.09;5052380;28;20602;-58
2022/03/06 05:05:53;;;;;;;31.87;22.30;;;;;;;3.38;98.64;99491.38;5053404;28;20570;-59
2022/03/06 05:08:20;;;;;;;34.67;22.20;;;;;;;3.43;98.86;99490.78;5053330;28;20279;-58
2022/03/06 05:10:47;;;;;;;39.00;28.00;;;;;;;3.50;99.27;99495.34;5052477;28;20531;-59
2022/03/06 05:13:15;;;;;;;36.27;25.73;;;;;;;3.57;98.73;99499.88;5053139;28;20566;-58
2022/03/06 05:15:42;;;;;;;35.17;23.30;;;;;;;3.53;98.44;99502.22;5053496;28;20188;-58
2022/03/06 05:18:09;;;;;;;35.93;24.07;;;;;;;3.52;98.29;99506.44;5051672;28;20192;-58
2022/03/06 05:20:36;;;;;;;29.63;23.00;;;;;;;3.55;98.36;99504.03;5052823;28;20647;-58
2022/03/06 05:23:03;;;;;;;33.87;24.70;;;;;;;3.53;98.30;99504.78;5052598;28;20188;-58
2022/03/06 05:25:30;;;;;;;35.13;22.93;;;;;;;3.52;98.67;99503.03;5052547;28;20279;-59
2022/03/06 05:27:57;;;;;;;32.47;23.30;;;;;;;3.52;98.69;99496.28;5051503;28;20223;-59
2022/03/06 05:30:25;;;;;;;34.07;22.13;;;;;;;3.51;98.39;99503.84;5052486;28;20219;-58
2022/03/06 05:32:52;;;;;;;34.93;22.73;;;;;;;3.48;98.45;99504.59;5052859;28;20577;-58
2022/03/06 05:35:19;;;;;;;36.83;23.63;;;;;;;3.56;98.58;99515.06;5057910;28;20276;-58
2022/03/06 05:37:46;;;;;;;44.40;30.35;;;;;;;3.52;98.46;99505.56;5061785;28;20526;-59
2022/03/06 05:40:13;;;;;;;35.60;24.37;;;;;;;3.54;98.77;99507.38;5048473;28;20207;-59
2022/03/06 05:42:40;;;;;;;36.40;25.50;;;;;;;3.52;98.36;99518.25;5032913;28;20705;-59
2022/03/06 05:45:08;;;;;;;39.83;27.73;;;;;;;3.55;98.57;99511.66;5050791;28;20541;-59
2022/03/06 05:47:36;;;;;;;39.70;26.53;;;;;;;3.55;98.62;99509.13;5052737;28;20288;-59
2022/03/06 05:50:04;;;;;;;35.43;25.57;;;;;;;3.38;98.12;99491.38;5051846;28;20283;-59
2022/03/06 05:52:32;;;;;;;33.77;24.43;;;;;;;3.48;98.13;99519.81;5052566;28;20188;-59
2022/03/06 05:54:59;;;;;;;33.57;23.10;;;;;;;3.48;98.21;99521.47;5052770;28;20200;-60
2022/03/06 05:57:26;;;;;;;35.17;24.07;;;;;;;3.51;98.18;99514.88;5052825;28;20188;-60
2022/03/06 05:59:53;;;;;;;39.38;26.80;;;;;;;3.26;98.46;99494.28;5052168;28;20450;-60
2022/03/06 06:02:21;;;;;;;35.63;25.03;;;;;;;3.35;98.83;99526.81;5052323;28;20188;-60
2022/03/06 06:04:49;;;;;;;34.27;23.93;;;;;;;3.34;99.10;99530.16;5052275;28;20212;-60
2022/03/06 06:07:17;;;;;;;38.97;25.10;;;;;;;3.39;98.93;99533.75;5052364;28;20551;-60
2022/03/06 06:09:44;;;;;;;35.80;25.13;;;;;;;3.48;98.85;99526.56;5052092;28;20287;-59
2022/03/06 06:12:11;;;;;;;37.40;24.53;;;;;;;3.49;98.54;99513.91;5052330;28;20196;-59
2022/03/06 06:14:38;;;;;;;37.30;25.87;;;;;;;3.56;98.59;99530.31;5052346;28;20271;-59
2022/03/06 06:17:05;;;;;;;37.57;25.00;;;;;;;3.29;98.18;99498.63;5052293;28;20199;-59
2022/03/06 06:19:32;;;;;;;36.27;24.03;;;;;;;3.31;98.46;99535.09;5052275;28;20574;-59
2022/03/06 06:22:00;;;;;;;35.87;25.10;;;;;;;3.40;98.91;99540.59;5052384;28;20210;-59
2022/03/06 06:24:27;;;;;;;38.53;25.80;;;;;;;3.42;98.83;99536.44;5051766;28;20219;-59
2022/03/06 06:26:55;;;;;;;38.57;27.00;;;;;;;3.47;99.16;99540.94;5051818;28;20663;-58
2022/03/06 06:29:23;;;;;;;41.20;25.47;;;;;;;3.49;98.66;99534.22;5051837;28;20232;-59
2022/03/06 06:31:51;;;;;;;38.83;25.87;;;;;;;3.47;98.29;99540.06;5051720;28;20192;-58
2022/03/06 06:34:18;;;;;;;41.08;29.08;;;;;;;3.49;98.46;99526.63;5051030;28;20474;-58
2022/03/06 06:36:45;;;;;;;39.07;27.07;;;;;;;3.44;98.77;99538.25;5051715;28;20617;-58
2022/03/06 06:39:13;;;;;;;38.33;27.43;;;;;;;3.62;98.45;99533.13;5051652;28;20570;-59
2022/03/06 06:41:41;;;;;;;42.03;27.50;;;;;;;3.48;98.30;99540.13;5051453;28;20196;-59
2022/03/06 06:44:09;;;;;;;41.53;26.23;;;;;;;3.60;98.63;99542.31;5051347;28;20226;-59
2022/03/06 06:46:36;;;;;;;38.93;26.73;;;;;;;3.57;98.40;99547.31;5051392;28;20203;-59
2022/03/06 06:49:04;;;;;;;40.63;25.77;;;;;;;3.54;98.04;99554.78;5048655;28;20669;-59
2022/03/06 06:51:31;;;;;;;38.73;26.27;;;;;;;3.47;97.65;99550.22;5049565;28;20210;-59
2022/03/06 06:53:58;;;;;;;44.00;32.72;;;;;;;3.61;98.33;99543.19;5049800;28;20957;-59
2022/03/06 06:56:26;;;;;;;44.60;29.03;;;;;;;3.61;98.20;99535.59;5051056;28;20192;-59
2022/03/06 06:58:53;;;;;;;41.43;27.70;;;;;;;3.76;98.11;99549.84;5050370;28;20192;-59
2022/03/06 07:01:20;;;;;;;42.85;31.95;;;;;;;3.72;97.61;99545.41;5049420;28;20446;-61
2022/03/06 07:03:47;;;;;;;38.63;27.00;;;;;;;3.80;97.47;99544.06;5050480;28;20189;-61
2022/03/06 07:06:14;;;;;;;37.90;25.23;;;;;;;3.89;97.43;99544.47;5050543;28;20197;-61
2022/03/06 07:08:41;;;;;;;35.87;25.53;;;;;;;3.79;96.56;99549.09;5049890;28;20677;-61
2022/03/06 07:11:08;;;;;;;38.47;24.87;;;;;;;3.73;96.94;99547.16;5047785;28;20188;-61
2022/03/06 07:13:37;;;;;;;37.37;25.83;;;;;;;3.80;96.53;99544.06;5049807;28;20234;-64
2022/03/06 07:16:04;;;;;;;33.73;23.53;;;;;;;3.56;96.79;99540.47;5049775;28;20199;-61
2022/03/06 07:18:31;;;;;;;41.23;27.23;;;;;;;3.54;97.24;99542.09;5050584;28;20435;-61
2022/03/06 07:20:58;;;;;;;39.93;27.40;;;;;;;3.71;97.85;99540.28;5050588;28;20667;-60
2022/03/06 07:23:24;;;;;;;36.30;23.93;;;;;;;3.78;98.08;99544.81;5051107;28;20281;-61
2022/03/06 07:25:51;;;;;;;35.58;23.90;;;;;;;3.75;97.44;99542.13;5050613;28;20444;-61
2022/03/06 07:28:18;;;;;;;31.77;22.73;;;;;;;3.64;97.80;99544.22;5050717;28;20207;-61
2022/03/06 07:30:48;;;;;;;33.57;23.93;;;;;;;3.69;98.43;99544.41;5050421;28;20259;-62
2022/03/06 07:33:15;;;;;;;35.00;23.50;;;;;;;3.71;97.86;99542.81;5049751;28;20282;-61
2022/03/06 07:35:42;;;;;;;32.20;22.33;;;;;;;3.69;97.82;99534.25;5040390;28;20192;-62
2022/03/06 07:38:09;;;;;;;35.00;23.33;;;;;;;3.67;97.74;99544.34;5050285;28;20200;-62
2022/03/06 07:40:36;;;;;;;32.50;22.63;;;;;;;3.51;97.36;99539.41;5050503;28;20197;-61
2022/03/06 07:43:03;;;;;;;32.37;21.13;;;;;;;3.48;97.59;99546.88;5050271;28;20574;-62
2022/03/06 07:45:30;;;;;;;35.10;24.77;;;;;;;3.48;98.05;99547.75;5050642;28;20215;-61
2022/03/06 07:47:58;;;;;;;32.73;22.37;;;;;;;3.54;98.45;99553.09;5033447;28;20208;-61
2022/03/06 07:50:26;;;;;;;33.83;23.23;;;;;;;3.54;98.20;99557.31;5033274;28;20204;-63
2022/03/06 07:52:56;;;;;;;39.60;28.80;;;;;;;3.58;98.23;99552.44;5029642;28;20540;-63
2022/03/06 07:55:23;;;;;;;34.27;23.07;;;;;;;3.70;98.22;99544.50;5030732;28;20223;-62
2022/03/06 07:57:50;;;;;;;34.37;22.43;;;;;;;3.71;97.77;99547.91;5048857;28;20220;-62
2022/03/06 08:00:17;;;;;;;32.03;23.70;;;;;;;3.73;97.47;99548.84;5050357;28;20663;-62
2022/03/06 08:02:44;;;;;;;38.43;24.73;;;;;;;3.76;97.36;99538.81;5047764;28;20271;-62
2022/03/06 08:05:12;;;;;;;31.87;22.73;;;;;;;3.74;97.26;99543.81;5049545;28;20208;-62
2022/03/06 08:07:39;;;;;;;34.37;23.43;;;;;;;3.80;97.80;99541.53;5049743;28;20224;-63
2022/03/06 08:10:08;;;;;;;32.93;22.87;;;;;;;3.83;97.50;99550.97;5046805;28;20306;-63
2022/03/06 08:12:35;;;;;;;30.23;21.73;;;;;;;3.66;96.65;99536.66;5049511;28;20185;-62
2022/03/06 08:15:02;;;;;;;30.50;21.07;;;;;;;3.64;97.13;99544.22;5049264;28;20195;-62
2022/03/06 08:17:29;;;;;;;34.00;21.90;;;;;;;3.62;96.95;99550.91;5047400;28;20193;-62
2022/03/06 08:19:56;;;;;;;35.35;27.73;;;;;;;3.66;96.86;99544.25;5048285;28;20462;-63
2022/03/06 08:22:24;;;;;;;32.23;22.53;;;;;;;3.58;96.88;99544.81;5049716;28;20205;-63
2022/03/06 08:24:53;;;;;;;29.10;21.47;;;;;;;3.64;96.43;99544.22;5047972;28;20235;-62
2022/03/06 08:27:21;;;;;;;33.43;23.63;;;;;;;3.69;96.55;99555.44;5049528;28;20283;-63
2022/03/06 08:29:48;;;;;;;34.67;23.40;;;;;;;3.62;96.64;99550.91;5048172;28;20224;-61
2022/03/06 08:32:15;;;;;;;34.40;23.17;;;;;;;3.69;96.96;99549.47;5048906;28;20188;-62
2022/03/06 08:34:42;;;;;;;36.57;23.33;;;;;;;3.63;96.81;99541.59;5046600;28;20659;-61
2022/03/06 08:37:09;;;;;;;34.20;22.17;;;;;;;3.64;96.43;99548.41;5048190;28;20201;-62
2022/03/06 08:39:37;;;;;;;30.10;21.70;;;;;;;3.57;96.25;99554.91;5049048;28;20194;-62
2022/03/06 08:42:05;;;;;;;34.27;21.37;;;;;;;3.37;95.84;99509.97;5049211;28;20923;-61
2022/03/06 08:44:32;;;;;;;34.30;23.20;;;;;;;3.53;95.67;99543.75;5048490;28;20210;-62
2022/03/06 08:46:59;;;;;;;33.60;22.30;;;;;;;3.67;96.55;99543.47;5048916;28;20275;-62
2022/03/06 08:49:26;;;;;;;31.57;21.77;;;;;;;3.60;95.88;99551.66;5049162;28;20196;-62
2022/03/06 08:51:53;;;;;;;33.57;21.00;;;;;;;3.65;95.89;99550.16;5049717;28;20188;-61
2022/03/06 08:54:21;;;;;;;32.23;21.87;;;;;;;3.63;95.28;99549.22;5049454;28;20197;-62
2022/03/06 08:56:49;;;;;;;28.63;19.83;;;;;;;3.62;95.08;99550.03;5047751;28;20279;-62
2022/03/06 08:59:16;;;;;;;29.73;20.43;;;;;;;3.72;95.01;99558.13;5048790;28;20205;-62
2022/03/06 09:01:43;;;;;;;30.33;20.27;;;;;;;3.66;94.52;99547.69;5049457;28;20223;-62
2022/03/06 09:04:10;;;;;;;32.40;22.83;;;;;;;3.60;94.92;99552.47;5053421;28;20682;-61
2022/03/06 09:06:36;;;;;;;38.73;25.13;;;;;;;3.55;95.44;99552.28;5053586;28;20220;-61
2022/03/06 09:09:03;;;;;;;29.63;21.73;;;;;;;3.54;94.96;99542.91;5053269;28;20203;-62
2022/03/06 09:11:30;;;;;;;35.80;24.23;;;;;;;3.53;95.10;99553.91;5053393;28;20745;-62
2022/03/06 09:13:59;;;;;;;35.17;22.90;;;;;;;3.52;94.72;99556.34;5053366;28;20195;-57
2022/03/06 09:16:27;;;;;;;39.07;23.10;;;;;;;3.61;95.32;99573.69;5051460;28;20193;-59
2022/03/06 09:18:53;;;;;;;37.83;24.57;;;;;;;3.49;95.54;99562.16;5052732;28;20196;-58
2022/03/06 09:21:20;;;;;;;30.50;22.30;;;;;;;3.64;95.31;99561.13;5050358;28;20184;-58
2022/03/06 09:23:47;;;;;;;39.73;24.07;;;;;;;3.49;95.00;99564.72;5052604;28;20195;-58
2022/03/06 09:26:14;;;;;;;38.83;24.37;;;;;;;3.66;94.96;99565.47;5052188;28;21562;-59
2022/03/06 09:28:41;;;;;;;41.10;25.93;;;;;;;3.77;95.23;99576.97;5050044;28;20217;-59
2022/03/06 09:31:09;;;;;;;35.97;24.83;;;;;;;3.87;94.71;99575.72;5052069;28;20197;-58
2022/03/06 09:33:36;;;;;;;32.93;22.30;;;;;;;3.88;94.30;99574.91;5051985;28;20188;-58
2022/03/06 09:36:03;;;;;;;36.07;23.10;;;;;;;3.80;94.25;99576.22;5052137;28;20616;-59
2022/03/06 09:38:30;;;;;;;32.13;21.90;;;;;;;3.71;94.27;99558.91;5050858;28;20671;-58
2022/03/06 09:41:03;;;;;;;34.67;24.10;;;;;;;3.84;94.10;99568.84;5052024;28;20184;-59
2022/03/06 09:43:31;;;;;;;34.40;24.07;;;;;;;3.82;93.63;99562.78;5048849;28;20188;-59
2022/03/06 09:46:05;;;;;;;36.97;25.23;;;;;;;3.87;93.70;99566.44;5051890;28;20204;-58
2022/03/06 09:48:34;;;;;;;32.37;24.47;;;;;;;3.79;93.63;99555.03;5050127;28;20192;-58
2022/03/06 09:51:02;;;;;;;34.33;23.97;;;;;;;3.73;93.93;99547.16;5051742;28;20189;-59
2022/03/06 09:53:29;;;;;;;30.37;23.67;;;;;;;3.71;93.90;99558.06;5052324;28;20588;-58
2022/03/06 09:55:56;;;;;;;30.50;24.93;;;;;;;3.73;94.07;99559.00;5048425;28;20509;-59
2022/03/06 09:58:23;;;;;;;31.80;22.70;;;;;;;3.80;92.97;99551.69;5051993;28;20550;-59
2022/03/06 10:00:50;;;;;;;26.60;20.07;;;;;;;3.56;93.76;99526.09;5052006;28;20199;-59
2022/03/06 10:03:19;;;;;;;27.77;21.98;;;;;;;3.56;93.78;99563.31;5051283;28;20455;-59
2022/03/06 10:05:47;;;;;;;30.97;19.67;;;;;;;3.71;93.65;99565.69;5051888;28;20220;-59
2022/03/06 10:08:19;;;;;;;26.97;18.70;;;;;;;3.43;93.72;99517.88;5051982;28;20192;-59
2022/03/06 10:10:48;;;;;;;26.80;20.67;;;;;;;3.63;93.75;99556.84;5032506;28;20197;-59
2022/03/06 10:13:30;;;;;;;27.17;20.33;;;;;;;3.52;93.55;99554.69;5038077;28;20589;-59
2022/03/06 10:16:12;;;;;;;29.53;19.77;;;;;;;3.60;94.52;99551.66;5051782;28;20185;-59
2022/03/06 10:18:41;;;;;;;29.43;22.07;;;;;;;3.67;94.41;99548.56;5051969;28;20231;-59
2022/03/06 10:21:15;;;;;;;31.83;22.98;;;;;;;3.84;94.85;99545.97;5042627;28;20997;-59
2022/03/06 10:23:43;;;;;;;25.43;18.83;;;;;;;3.72;93.88;99545.41;5051848;28;20200;-59
2022/03/06 10:26:12;;;;;;;28.63;19.87;;;;;;;3.76;93.92;99543.88;5051607;28;20228;-58
2022/03/06 10:28:47;;;;;;;27.90;21.40;;;;;;;3.82;93.78;99539.09;5051434;28;20374;-59
2022/03/06 10:31:14;;;;;;;28.40;18.37;;;;;;;3.76;94.19;99538.81;5051729;28;20725;-59
2022/03/06 10:33:41;;;;;;;26.13;19.43;;;;;;;3.71;93.74;99546.22;5051515;28;20231;-59
2022/03/06 10:36:09;;;;;;;27.00;17.77;;;;;;;3.81;93.84;99550.91;5043612;28;20193;-57
2022/03/06 10:38:38;;;;;;;27.80;20.53;;;;;;;3.86;93.45;99541.81;5050730;28;20192;-58
2022/03/06 10:41:12;;;;;;;27.30;19.67;;;;;;;3.73;92.78;99514.13;5057432;28;20299;-59
2022/03/06 10:43:40;;;;;;;27.60;18.50;;;;;;;3.90;93.30;99551.28;5049324;28;20578;-59
2022/03/06 10:46:09;;;;;;;28.57;20.00;;;;;;;3.90;93.45;99546.19;5051252;28;20688;-58
2022/03/06 10:48:36;;;;;;;29.30;23.73;;;;;;;3.91;93.78;99547.06;5050951;28;20454;-59
2022/03/06 10:51:04;;;;;;;37.30;23.23;;;;;;;3.82;93.34;99532.31;5051032;28;20292;-59
2022/03/06 10:53:31;;;;;;;38.50;24.37;;;;;;;3.95;93.09;99534.59;5051109;28;20192;-59
2022/03/06 10:56:08;;;;;;;41.90;24.50;;;;;;;3.87;92.78;99532.50;5056251;28;20218;-60
2022/03/06 10:58:37;;;;;;;36.53;22.27;;;;;;;3.89;93.12;99533.44;5071391;28;20202;-59
2022/03/06 11:01:04;;;;;;;34.47;24.90;;;;;;;3.88;93.10;99530.03;5063662;28;20265;-60
2022/03/06 11:03:34;;;;;;;30.57;23.57;;;;;;;3.89;92.88;99529.22;5051002;28;20192;-59
2022/03/06 11:06:02;;;;;;;28.13;19.40;;;;;;;3.99;93.20;99520.31;5049132;28;20208;-58
2022/03/06 11:08:30;;;;;;;30.83;21.93;;;;;;;3.79;92.62;99522.00;5050653;28;20665;-58
2022/03/06 11:10:58;;;;;;;33.50;24.17;;;;;;;3.80;93.31;99521.22;5047748;28;20287;-59
2022/03/06 11:13:29;;;;;;;41.95;30.25;;;;;;;3.90;93.80;99520.78;5049920;28;20449;-59
2022/03/06 11:15:56;;;;;;;28.70;19.77;;;;;;;3.90;92.84;99515.72;5050990;28;20207;-58
2022/03/06 11:18:24;;;;;;;31.27;22.80;;;;;;;4.01;92.55;99511.94;5050612;28;20292;-59
2022/03/06 11:20:53;;;;;;;30.60;21.53;;;;;;;4.17;92.91;99513.47;5050259;28;20251;-59
2022/03/06 11:23:30;;;;;;;32.10;25.30;;;;;;;4.30;92.72;99512.28;5050538;28;20279;-59
2022/03/06 11:26:23;;;;;;;31.83;23.80;;;;;;;4.25;92.40;99495.97;5049814;28;20298;-59